Aérodrome :
LOGIN :

S'inscrire | Disclaimer

   EN    FR    IT 

 










Légende :    VFR   VFR Marginal   IFR   IFR Intensif   IFR Très Intensif
Visi : 
Plafond : 
>= 8 km
>= 3000ft
5 à 8 km
1000 à 3000 ft
1500m à 5 km
500 à 1000 ft
800 à 1500m
200 à 500 ft
< 800m
< 200 ft
Symboles :   Orages  Brouillard  Fortes neiges  Fortes précipitations  Vent > 20 kt
SIGMETs :   Divers  Orages  Givrage  Turbulence  Onde Orograph.  Cendres Volcan.






- Altitude de l'aérodrome : 306 ft
- Code IATA : EMA


EGNX - Nottingham East Midlands

DERNIER METAR :
  • 060420Z 19013KT 9999 -RA SCT025 BKN036 12/10 Q1007

METARs EXPIRÉS :
  • 060350Z 19013KT 9999 -RA OVC017 13/09 Q1007
  • 060320Z 18012KT 9999 -SHRA SCT019 13/08 Q1006
  • 060250Z 18011KT 9999 FEW020 13/08 Q1006
  • 060220Z 18012KT CAVOK 13/07 Q1006
  • 060150Z 18013KT 9999 SCT045 13/06 Q1007

TAF TAF EGNX
Valide du 06 à 00h jusqu'au 07 à 00h UTC


052253Z 0600/0624 16015KT 9999 SCT025
TEMPO 0600/0606 8000 -RA BKN014
PROB30
TEMPO 0602/0606 4000 RA BKN009
BECMG 0606/0609 24012KT
PROB30
TEMPO 0608/0615 8000 SHRA
BECMG 0621/0624 VRB03KT
ATIS : +44 1332 852 852 (ext 3201)



MET'MAP, la Météo Aéronautique d'un coup d'oeil ! - Copyright ORBIFLY Décembre 2007 - Disclaimer

ORBIFLY MET'MAP TEAM :

Programmation & Développement : Alexandra Zaïnal
Sur une idée originale de : Baudouin d'Aumeries
Assistance à la programmation : Marc-Olivier Méhu
Soutien technique & logistique : Manuel Goepfert

Contact : metmap@orbifly.com




SOURCES & CREDITS :

   NOAA